createdAt,value
2022-11-30T00:01:32.357Z,124.82
2022-11-30T00:04:00.612Z,129.27
2022-11-30T00:06:29.122Z,126.93
2022-11-30T00:08:59.587Z,128.32
2022-11-30T00:11:29.750Z,133.20
2022-11-30T00:14:00.858Z,123.93
2022-11-30T00:16:32.548Z,126.82
2022-11-30T00:19:00.887Z,130.15
2022-11-30T00:21:29.218Z,121.78
2022-11-30T00:23:58.883Z,130.15
2022-11-30T00:26:26.964Z,126.07
2022-11-30T00:28:55.340Z,124.22
2022-11-30T00:31:24.880Z,128.15
2022-11-30T00:33:53.352Z,129.82
2022-11-30T00:36:23.132Z,132.20
2022-11-30T00:38:54.588Z,128.32
2022-11-30T00:41:30.632Z,128.80
2022-11-30T00:44:06.197Z,133.10
2022-11-30T00:46:34.406Z,130.13
2022-11-30T00:49:02.685Z,123.78
2022-11-30T00:51:30.939Z,132.00
2022-11-30T00:53:59.014Z,132.35
2022-11-30T00:56:28.564Z,128.68
2022-11-30T00:58:56.786Z,131.40
2022-11-30T01:01:25.077Z,130.20
2022-11-30T01:03:53.601Z,144.98
2022-11-30T01:06:21.676Z,132.73
2022-11-30T01:08:49.829Z,125.63
2022-11-30T01:11:21.752Z,131.70
2022-11-30T01:13:54.373Z,137.55
2022-11-30T01:16:25.814Z,134.65
2022-11-30T01:18:54.609Z,136.43
2022-11-30T01:21:27.546Z,134.95
2022-11-30T01:23:56.548Z,134.35
2022-11-30T01:26:25.363Z,143.00
2022-11-30T01:28:56.281Z,131.48
2022-11-30T01:31:25.948Z,130.98
2022-11-30T01:33:55.947Z,132.30
2022-11-30T01:36:26.512Z,139.90
2022-11-30T01:38:56.453Z,133.93
2022-11-30T01:41:29.920Z,139.82
2022-11-30T01:44:19.509Z,132.23
2022-11-30T01:46:55.127Z,150.20
2022-11-30T01:49:29.576Z,133.70
2022-11-30T01:52:01.869Z,133.15
2022-11-30T01:54:34.961Z,140.25
2022-11-30T01:57:06.384Z,133.27
2022-11-30T01:59:36.076Z,137.40
2022-11-30T02:02:04.407Z,138.45
2022-11-30T02:04:37.394Z,137.65
2022-11-30T02:07:08.460Z,135.02
2022-11-30T02:09:43.273Z,135.45
2022-11-30T02:12:23.187Z,135.10
2022-11-30T02:14:57.549Z,144.23
2022-11-30T02:17:35.547Z,131.88
2022-11-30T02:20:42.443Z,139.95
2022-11-30T02:23:36.527Z,134.55
2022-11-30T02:26:19.589Z,137.25
2022-11-30T02:29:11.819Z,138.43
2022-11-30T02:31:44.913Z,140.35
2022-11-30T02:34:17.201Z,134.07
2022-11-30T02:36:47.241Z,139.13
2022-11-30T02:39:15.545Z,137.32
2022-11-30T02:41:43.743Z,134.15
2022-11-30T02:44:15.045Z,134.90
2022-11-30T02:46:54.766Z,138.88
2022-11-30T02:49:32.276Z,143.77
2022-11-30T02:52:02.425Z,140.68
2022-11-30T02:54:30.629Z,141.95
2022-11-30T02:56:59.160Z,129.13
2022-11-30T02:59:29.162Z,141.45
2022-11-30T03:01:57.511Z,129.23
2022-11-30T03:04:25.687Z,131.50
2022-11-30T03:06:53.764Z,134.35
2022-11-30T03:09:22.128Z,134.95
2022-11-30T03:11:52.445Z,139.13
2022-11-30T03:14:20.613Z,136.98
2022-11-30T03:16:50.108Z,135.65
2022-11-30T03:19:21.325Z,132.35
2022-11-30T03:21:50.225Z,136.23
2022-11-30T03:24:20.979Z,136.88
2022-11-30T03:26:49.271Z,135.98
2022-11-30T03:29:17.556Z,132.90
2022-11-30T03:31:45.967Z,141.75
2022-11-30T03:34:15.627Z,133.57
2022-11-30T03:36:43.864Z,137.80
2022-11-30T03:39:13.445Z,136.85
2022-11-30T03:41:41.501Z,131.10
2022-11-30T03:44:09.642Z,134.20
2022-11-30T03:46:37.893Z,135.48
2022-11-30T03:49:07.421Z,136.60
2022-11-30T03:51:37.024Z,135.57
2022-11-30T03:54:05.306Z,141.40
2022-11-30T03:56:33.611Z,140.98
2022-11-30T03:59:01.767Z,138.18
2022-11-30T04:01:30.771Z,141.85
2022-11-30T04:03:58.998Z,140.05
2022-11-30T04:06:27.095Z,139.57
2022-11-30T04:08:56.595Z,143.10
2022-11-30T04:11:24.784Z,144.80
2022-11-30T04:13:53.030Z,143.05
2022-11-30T04:16:23.232Z,139.23
2022-11-30T04:18:53.693Z,141.57
2022-11-30T04:21:21.805Z,133.55
2022-11-30T04:23:49.932Z,143.63
2022-11-30T04:26:19.390Z,139.02
2022-11-30T04:28:47.743Z,144.63
2022-11-30T04:31:15.910Z,141.95
2022-11-30T04:33:44.097Z,131.98
2022-11-30T04:36:19.437Z,146.48
2022-11-30T04:38:48.095Z,142.77
2022-11-30T04:41:16.573Z,136.93
2022-11-30T04:43:46.174Z,144.00
2022-11-30T04:46:14.666Z,136.10
2022-11-30T04:48:42.850Z,135.02
2022-11-30T04:51:10.976Z,141.18
2022-11-30T04:53:39.385Z,137.40
2022-11-30T04:56:08.439Z,142.15
2022-11-30T04:58:39.109Z,148.60
2022-11-30T05:01:09.300Z,142.65
2022-11-30T05:03:37.847Z,140.98
2022-11-30T05:06:06.578Z,146.05
2022-11-30T05:08:34.655Z,142.02
2022-11-30T05:11:02.745Z,143.45
2022-11-30T05:13:33.201Z,145.43
2022-11-30T05:16:03.713Z,136.73
2022-11-30T05:18:33.455Z,140.93
2022-11-30T05:21:01.543Z,144.43
2022-11-30T05:23:29.719Z,142.73
2022-11-30T05:25:57.792Z,140.35
2022-11-30T05:28:25.858Z,146.48
2022-11-30T05:30:53.954Z,141.02
2022-11-30T05:33:22.094Z,138.43
2022-11-30T05:35:51.570Z,146.52
2022-11-30T05:38:19.667Z,141.07
2022-11-30T05:40:48.070Z,146.57
2022-11-30T05:43:16.466Z,150.55
2022-11-30T05:45:44.511Z,138.20
2022-11-30T05:48:12.653Z,133.93
2022-11-30T05:50:40.757Z,138.85
2022-11-30T05:53:10.241Z,141.85
2022-11-30T05:55:38.436Z,135.45
2022-11-30T05:58:06.675Z,137.65
2022-11-30T06:00:34.827Z,128.60
2022-11-30T06:03:03.161Z,129.10
2022-11-30T06:05:31.514Z,135.65
2022-11-30T06:08:00.796Z,125.07
2022-11-30T06:10:30.320Z,133.77
2022-11-30T06:12:58.404Z,138.25
2022-11-30T06:15:26.482Z,129.00
2022-11-30T06:17:57.200Z,128.80
2022-11-30T06:20:25.387Z,136.82
2022-11-30T06:22:53.494Z,142.27
2022-11-30T06:25:21.632Z,130.10
2022-11-30T06:27:51.104Z,133.57
2022-11-30T06:30:19.394Z,131.43
2022-11-30T06:32:47.741Z,133.60
2022-11-30T06:35:15.962Z,130.32
2022-11-30T06:37:44.224Z,131.35
2022-11-30T06:40:14.791Z,133.60
2022-11-30T06:42:42.940Z,132.98
2022-11-30T06:45:13.160Z,136.43
2022-11-30T06:47:41.609Z,129.93
2022-11-30T06:50:10.285Z,124.80
2022-11-30T06:52:38.479Z,137.88
2022-11-30T06:55:09.561Z,138.05
2022-11-30T06:57:37.690Z,126.97
2022-11-30T07:00:08.410Z,135.90
2022-11-30T07:02:38.006Z,133.20
2022-11-30T07:05:07.101Z,129.13
2022-11-30T07:07:36.223Z,130.80
2022-11-30T07:10:06.171Z,123.35
2022-11-30T07:12:36.397Z,127.45
2022-11-30T07:15:05.161Z,133.43
2022-11-30T07:17:33.356Z,128.70
2022-11-30T07:20:02.809Z,129.95
2022-11-30T07:22:30.913Z,131.93
2022-11-30T07:25:16.361Z,133.88
2022-11-30T07:27:44.733Z,118.50
2022-11-30T07:30:13.901Z,130.75
2022-11-30T07:32:42.018Z,130.68
2022-11-30T07:35:11.637Z,123.65
2022-11-30T07:37:39.780Z,132.20
2022-11-30T07:40:10.943Z,135.82
2022-11-30T07:42:39.042Z,129.75
2022-11-30T07:45:08.312Z,130.65
2022-11-30T07:47:37.056Z,126.78
2022-11-30T07:50:05.856Z,130.27
2022-11-30T07:52:35.287Z,123.22
2022-11-30T07:55:04.578Z,131.98
2022-11-30T07:57:32.998Z,129.05
2022-11-30T08:00:01.219Z,135.70
2022-11-30T08:02:29.846Z,124.07
2022-11-30T08:04:58.792Z,127.72
2022-11-30T08:07:29.180Z,127.72
2022-11-30T08:10:00.763Z,128.05
2022-11-30T08:12:29.909Z,135.73
2022-11-30T08:15:19.475Z,131.52
2022-11-30T08:17:46.152Z,128.55
2022-11-30T08:20:14.778Z,133.65
2022-11-30T08:22:42.987Z,125.85
2022-11-30T08:25:12.512Z,129.13
2022-11-30T08:27:43.972Z,138.55
2022-11-30T08:30:12.497Z,141.88
2022-11-30T08:32:40.677Z,131.00
2022-11-30T08:35:09.601Z,135.50
2022-11-30T08:37:38.833Z,127.10
2022-11-30T08:40:08.359Z,124.30
2022-11-30T08:42:37.931Z,126.60
2022-11-30T08:45:06.968Z,133.25
2022-11-30T08:47:35.189Z,143.77
2022-11-30T08:50:03.578Z,134.93
2022-11-30T08:52:32.009Z,138.88
2022-11-30T08:55:00.142Z,130.30
2022-11-30T08:57:29.045Z,145.85
2022-11-30T08:59:58.520Z,154.00
2022-11-30T09:02:26.744Z,140.95
2022-11-30T09:04:57.249Z,158.80
2022-11-30T09:07:25.589Z,138.52
2022-11-30T09:09:53.763Z,131.45
2022-11-30T09:12:22.168Z,128.20
2022-11-30T09:14:57.168Z,135.95
2022-11-30T09:17:27.760Z,130.70
2022-11-30T09:19:56.123Z,125.88
2022-11-30T09:22:24.403Z,123.60
2022-11-30T09:24:52.610Z,119.93
2022-11-30T09:27:20.983Z,129.82
2022-11-30T09:29:49.076Z,123.53
2022-11-30T09:32:17.442Z,115.82
2022-11-30T09:34:48.520Z,124.75
2022-11-30T09:37:18.837Z,201.27
2022-11-30T09:39:47.418Z,127.72
2022-11-30T09:42:34.479Z,135.05
2022-11-30T09:45:07.686Z,134.60
2022-11-30T09:48:07.050Z,142.35
2022-11-30T09:50:43.187Z,111.55
2022-11-30T09:53:27.625Z,115.85
2022-11-30T09:55:57.811Z,179.05
2022-11-30T09:58:37.370Z,142.15
2022-11-30T10:01:07.673Z,249.75
2022-11-30T10:03:35.894Z,201.98
2022-11-30T10:06:12.382Z,125.55
2022-11-30T10:08:52.820Z,172.77
2022-11-30T10:11:39.078Z,190.13
2022-11-30T10:14:23.542Z,192.13
2022-11-30T10:17:01.515Z,124.43
2022-11-30T10:19:48.610Z,253.88
2022-11-30T10:22:25.668Z,378.40
2022-11-30T10:25:11.862Z,296.80
2022-11-30T10:27:50.852Z,130.52
2022-11-30T10:30:23.181Z,182.85
2022-11-30T10:32:54.297Z,207.90
2022-11-30T10:35:32.836Z,149.30
2022-11-30T10:38:11.838Z,121.78
2022-11-30T10:40:46.944Z,263.63
2022-11-30T10:43:20.281Z,254.25
2022-11-30T10:45:50.360Z,217.57
2022-11-30T10:48:25.041Z,163.00
2022-11-30T10:50:54.154Z,139.07
2022-11-30T10:53:23.896Z,119.38
2022-11-30T10:55:59.673Z,148.90
2022-11-30T10:58:32.641Z,120.45
2022-11-30T11:01:05.157Z,110.65
2022-11-30T11:03:34.330Z,121.35
2022-11-30T11:06:15.270Z,128.75
2022-11-30T11:08:46.899Z,118.03
2022-11-30T11:11:30.455Z,163.25
2022-11-30T11:14:15.121Z,183.95
2022-11-30T11:16:55.551Z,126.15
2022-11-30T11:19:32.738Z,151.82
2022-11-30T11:22:03.717Z,119.18
2022-11-30T11:24:34.017Z,151.02
2022-11-30T11:27:02.326Z,162.32
2022-11-30T11:29:33.603Z,172.40
2022-11-30T11:32:21.942Z,205.07
2022-11-30T11:34:51.475Z,181.93
2022-11-30T11:37:26.315Z,330.40
2022-11-30T11:40:02.200Z,186.68
2022-11-30T11:42:33.409Z,146.05
2022-11-30T11:45:03.169Z,225.27
2022-11-30T11:47:40.663Z,143.68
2022-11-30T11:50:57.876Z,184.15
2022-11-30T11:53:25.146Z,208.30
2022-11-30T11:56:03.608Z,266.35
2022-11-30T11:58:41.836Z,169.60
2022-11-30T12:01:39.098Z,141.25
2022-11-30T12:04:17.983Z,146.45
2022-11-30T12:06:47.608Z,193.20
2022-11-30T12:09:19.467Z,168.27
2022-11-30T12:11:50.329Z,251.83
2022-11-30T12:14:20.226Z,157.23
2022-11-30T12:17:13.855Z,148.18
2022-11-30T12:19:59.400Z,170.13
2022-11-30T12:22:52.717Z,239.10
2022-11-30T12:28:16.077Z,144.15
2022-11-30T12:30:54.678Z,132.15
2022-11-30T12:33:32.043Z,170.65
2022-11-30T12:36:08.450Z,154.38
2022-11-30T12:38:47.025Z,175.93
2022-11-30T12:41:31.324Z,153.00
2022-11-30T12:44:16.651Z,187.18
2022-11-30T12:46:53.749Z,149.52
2022-11-30T12:49:35.115Z,185.63
2022-11-30T12:52:14.027Z,213.18
2022-11-30T12:54:53.517Z,157.57
2022-11-30T12:57:27.870Z,156.95
2022-11-30T13:00:06.771Z,144.57
2022-11-30T13:03:16.795Z,154.60
2022-11-30T13:05:48.997Z,147.27
2022-11-30T13:08:24.450Z,135.75
2022-11-30T13:10:57.549Z,139.63
2022-11-30T13:13:30.521Z,148.73
2022-11-30T13:16:02.929Z,145.93
2022-11-30T13:18:34.344Z,153.50
2022-11-30T13:21:09.453Z,161.32
2022-11-30T13:23:41.485Z,153.00
2022-11-30T13:26:19.097Z,143.77
2022-11-30T13:29:03.096Z,148.93
2022-11-30T13:31:37.667Z,155.65
2022-11-30T13:34:24.851Z,153.63
2022-11-30T13:37:03.277Z,155.43
2022-11-30T13:39:37.248Z,164.60
2022-11-30T13:42:32.701Z,163.25
2022-11-30T13:45:17.222Z,171.45
2022-11-30T13:47:50.026Z,179.63
2022-11-30T13:53:19.998Z,180.95
2022-11-30T13:56:02.432Z,182.55
2022-11-30T13:58:32.470Z,187.52
2022-11-30T14:01:24.256Z,177.98
2022-11-30T14:04:31.072Z,195.75
2022-11-30T14:07:00.733Z,217.75
2022-11-30T14:09:58.155Z,209.82
2022-11-30T14:12:58.223Z,230.25
2022-11-30T14:15:48.925Z,189.10
2022-11-30T14:21:11.810Z,200.03
2022-11-30T14:23:48.423Z,206.57
2022-11-30T14:26:18.527Z,213.15
2022-11-30T14:28:53.728Z,198.15
2022-11-30T14:31:25.358Z,218.45
2022-11-30T14:33:56.728Z,211.15
2022-11-30T14:36:34.573Z,230.68
2022-11-30T14:39:02.746Z,227.48
2022-11-30T14:41:32.463Z,241.07
2022-11-30T14:44:07.189Z,245.23
2022-11-30T14:46:36.414Z,294.33
2022-11-30T14:49:12.475Z,221.20
2022-11-30T14:51:45.498Z,236.60
2022-11-30T14:54:28.188Z,241.60
2022-11-30T14:57:03.843Z,245.52
2022-11-30T14:59:44.860Z,251.93
2022-11-30T15:02:21.299Z,248.82
2022-11-30T15:04:51.891Z,244.85
2022-11-30T15:07:22.979Z,237.65
2022-11-30T15:10:01.010Z,248.88
2022-11-30T15:12:29.217Z,240.10
2022-11-30T15:15:04.337Z,247.15
2022-11-30T15:17:32.797Z,238.27
2022-11-30T15:20:00.968Z,240.93
2022-11-30T15:22:35.223Z,233.32
2022-11-30T15:25:03.531Z,233.10
2022-11-30T15:27:32.154Z,243.77
2022-11-30T15:30:02.451Z,230.32
2022-11-30T15:32:30.898Z,232.00
2022-11-30T15:35:01.086Z,231.75
2022-11-30T15:37:33.269Z,228.23
2022-11-30T15:40:04.464Z,242.85
2022-11-30T15:42:39.847Z,227.00
2022-11-30T15:45:18.380Z,231.93
2022-11-30T15:47:46.575Z,226.20
2022-11-30T15:50:45.057Z,227.75
2022-11-30T15:53:33.018Z,230.30
2022-11-30T15:56:07.603Z,219.00
2022-11-30T16:01:16.930Z,217.48
2022-11-30T16:04:06.889Z,210.43
2022-11-30T16:06:39.437Z,218.77
2022-11-30T16:09:20.329Z,216.23
2022-11-30T16:11:51.310Z,219.00
2022-11-30T16:14:19.538Z,231.30
2022-11-30T16:16:47.988Z,227.70
2022-11-30T16:19:16.310Z,236.85
2022-11-30T16:21:44.971Z,223.18
2022-11-30T16:24:16.859Z,213.98
2022-11-30T16:26:53.104Z,218.27
2022-11-30T16:29:23.728Z,216.40
2022-11-30T16:31:51.920Z,223.68
2022-11-30T16:34:21.986Z,218.40
2022-11-30T16:36:50.513Z,225.55
2022-11-30T16:39:20.090Z,231.27
2022-11-30T16:41:48.297Z,218.40
2022-11-30T16:44:17.669Z,204.07
2022-11-30T16:46:45.955Z,211.68
2022-11-30T16:49:14.198Z,216.13
2022-11-30T16:51:42.759Z,207.45
2022-11-30T16:54:14.034Z,224.15
2022-11-30T16:56:44.078Z,207.07
2022-11-30T16:59:16.588Z,218.10
2022-11-30T17:01:48.330Z,216.35
2022-11-30T17:04:20.086Z,206.05
2022-11-30T17:06:50.895Z,212.38
2022-11-30T17:09:21.899Z,215.30
2022-11-30T17:11:52.462Z,216.25
2022-11-30T17:14:22.018Z,223.70
2022-11-30T17:16:50.402Z,229.77
2022-11-30T17:19:19.781Z,227.52
2022-11-30T17:21:48.833Z,224.45
2022-11-30T17:24:17.189Z,225.20
2022-11-30T17:26:47.709Z,216.80
2022-11-30T17:29:17.588Z,232.02
2022-11-30T17:31:47.197Z,222.32
2022-11-30T17:34:15.457Z,218.70
2022-11-30T17:36:44.224Z,238.85
2022-11-30T17:39:13.164Z,226.90
2022-11-30T17:41:41.616Z,227.65
2022-11-30T17:44:11.060Z,235.93
2022-11-30T17:46:45.329Z,220.80
2022-11-30T17:49:18.430Z,234.73
2022-11-30T17:51:46.725Z,239.13
2022-11-30T17:54:15.360Z,234.40
2022-11-30T17:56:44.610Z,242.38
2022-11-30T17:59:13.286Z,238.48
2022-11-30T18:01:42.924Z,225.30
2022-11-30T18:04:11.579Z,232.45
2022-11-30T18:06:39.733Z,235.73
2022-11-30T18:09:07.992Z,230.93
2022-11-30T18:11:36.132Z,226.82
2022-11-30T18:14:04.445Z,224.55
2022-11-30T18:16:34.150Z,236.85
2022-11-30T18:19:11.695Z,226.50
2022-11-30T18:21:41.646Z,232.68
2022-11-30T18:24:11.055Z,219.27
2022-11-30T18:26:40.014Z,223.80
2022-11-30T18:29:09.259Z,215.60
2022-11-30T18:31:37.520Z,207.85
2022-11-30T18:34:08.320Z,211.73
2022-11-30T18:36:36.407Z,200.00
2022-11-30T18:39:05.354Z,195.98
2022-11-30T18:41:34.140Z,200.75
2022-11-30T18:44:02.333Z,196.32
2022-11-30T18:46:31.636Z,190.68
2022-11-30T18:49:01.214Z,191.02
2022-11-30T18:51:33.524Z,183.65
2022-11-30T18:54:03.203Z,182.05
2022-11-30T18:56:33.674Z,184.57
2022-11-30T18:59:03.556Z,188.68
2022-11-30T19:01:32.610Z,249.77
2022-11-30T19:04:02.572Z,194.73
2022-11-30T19:06:33.251Z,282.88
2022-11-30T19:09:03.345Z,192.00
2022-11-30T19:11:33.272Z,186.57
2022-11-30T19:14:02.188Z,169.60
2022-11-30T19:16:31.857Z,179.63
2022-11-30T19:19:01.391Z,182.43
2022-11-30T19:21:31.627Z,183.18
2022-11-30T19:24:00.412Z,173.93
2022-11-30T19:26:29.000Z,184.80
2022-11-30T19:28:57.893Z,177.65
2022-11-30T19:31:27.181Z,182.15
2022-11-30T19:33:57.088Z,182.55
2022-11-30T19:36:27.168Z,197.80
2022-11-30T19:38:58.789Z,201.27
2022-11-30T19:41:27.210Z,190.07
2022-11-30T19:44:02.454Z,195.27
2022-11-30T19:46:33.540Z,187.52
2022-11-30T19:49:02.395Z,190.23
2022-11-30T19:51:32.231Z,197.85
2022-11-30T19:54:03.886Z,187.80
2022-11-30T19:56:34.597Z,192.80
2022-11-30T19:59:05.537Z,187.43
2022-11-30T20:01:35.214Z,190.13
2022-11-30T20:04:03.607Z,175.43
2022-11-30T20:06:34.602Z,183.93
2022-11-30T20:09:05.718Z,192.55
2022-11-30T20:11:34.004Z,195.98
2022-11-30T20:14:02.251Z,185.68
2022-11-30T20:16:30.678Z,195.43
2022-11-30T20:19:01.612Z,203.95
2022-11-30T20:21:32.026Z,184.02
2022-11-30T20:24:04.314Z,185.80
2022-11-30T20:26:38.228Z,189.30
2022-11-30T20:29:08.123Z,184.70
2022-11-30T20:31:37.726Z,188.20
2022-11-30T20:34:08.186Z,196.73
2022-11-30T20:36:37.272Z,196.35
2022-11-30T20:39:08.009Z,192.02
2022-11-30T20:41:36.201Z,196.13
2022-11-30T20:44:04.593Z,193.98
2022-11-30T20:46:34.409Z,202.40
2022-11-30T20:49:03.700Z,201.32
2022-11-30T20:51:34.606Z,196.18
2022-11-30T20:54:05.536Z,198.95
2022-11-30T20:56:37.036Z,200.40
2022-11-30T20:59:06.940Z,199.07
2022-11-30T21:01:35.592Z,191.50
2022-11-30T21:04:03.898Z,200.32
2022-11-30T21:06:33.417Z,185.32
2022-11-30T21:09:02.085Z,183.93
2022-11-30T21:11:31.206Z,173.88
2022-11-30T21:14:04.056Z,196.43
2022-11-30T21:16:32.622Z,189.07
2022-11-30T21:19:01.963Z,197.55
2022-11-30T21:21:34.163Z,189.88
2022-11-30T21:24:04.529Z,193.85
2022-11-30T21:26:34.649Z,203.60
2022-11-30T21:29:06.856Z,212.02
2022-11-30T21:31:35.659Z,189.60
2022-11-30T21:34:04.384Z,193.43
2022-11-30T21:36:34.146Z,191.90
2022-11-30T21:39:06.305Z,183.35
2022-11-30T21:41:35.997Z,178.10
2022-11-30T21:44:06.264Z,198.48
2022-11-30T21:49:06.819Z,189.27
2022-11-30T21:51:35.147Z,192.18
2022-11-30T21:54:07.215Z,203.00
2022-11-30T21:56:37.923Z,209.88
2022-11-30T21:59:10.132Z,187.10
2022-11-30T22:01:40.010Z,188.52
2022-11-30T22:04:11.067Z,189.48
2022-11-30T22:06:41.145Z,188.52
2022-11-30T22:09:13.186Z,181.30
2022-11-30T22:11:43.744Z,183.95
2022-11-30T22:14:15.520Z,208.70
2022-11-30T22:16:44.345Z,198.17
2022-11-30T22:19:12.768Z,185.52
2022-11-30T22:21:44.180Z,191.55
2022-11-30T22:24:16.570Z,180.57
2022-11-30T22:26:49.119Z,167.48
2022-11-30T22:29:21.154Z,173.93
2022-11-30T22:31:51.116Z,174.05
2022-11-30T22:34:19.694Z,187.15
2022-11-30T22:36:48.514Z,172.38
2022-11-30T22:39:19.337Z,182.75
2022-11-30T22:41:54.557Z,181.98
2022-11-30T22:44:26.428Z,178.75
2022-11-30T22:46:55.016Z,178.30
2022-11-30T22:49:23.724Z,185.55
2022-11-30T22:51:52.463Z,191.90
2022-11-30T22:54:20.611Z,179.40
2022-11-30T22:56:48.805Z,191.35
2022-11-30T22:59:17.258Z,189.50
2022-11-30T23:01:48.406Z,202.85
2022-11-30T23:04:18.249Z,193.70
2022-11-30T23:06:47.650Z,182.45
2022-11-30T23:09:19.247Z,194.32
2022-11-30T23:11:48.048Z,193.85
2022-11-30T23:14:16.533Z,192.30
2022-11-30T23:16:46.751Z,179.68
2022-11-30T23:19:15.554Z,185.95
2022-11-30T23:21:45.800Z,185.27
2022-11-30T23:24:16.415Z,196.52
2022-11-30T23:26:44.883Z,190.57
2022-11-30T23:29:15.710Z,191.65
2022-11-30T23:31:53.212Z,188.20
2022-11-30T23:34:29.812Z,194.95
2022-11-30T23:37:00.228Z,205.68
2022-11-30T23:39:28.415Z,205.75
2022-11-30T23:41:56.683Z,196.43
2022-11-30T23:44:25.135Z,207.77
2022-11-30T23:46:54.652Z,206.75
2022-11-30T23:49:23.998Z,199.73
2022-11-30T23:51:52.197Z,195.55
2022-11-30T23:54:20.443Z,261.85
2022-11-30T23:56:48.573Z,192.88
2022-11-30T23:59:16.940Z,178.77
